Terminal Aerodrome Forecast
Issued by NWS Upton, NY

Home | Current Version | Previous Version | Text Only | Print | Product List | Glossary On
Versions: 1 2 3 4 5 6 7 8 9 10 11 12 13 14 15 16 17 18 19 20 21 22 23 24 25 26 27 28 29 30 31 32 33 34
000
FTUS41 KOKX 230942 AAB
TAFEWR
TAF AMD
KEWR 230942Z 2310/2412 VRB03KT P6SM VCSH BKN005 OVC008
     FM231100 29004KT P6SM BKN010
     FM231300 30006KT P6SM SCT025 SCT060
     FM231500 32010KT P6SM SCT060
     FM232300 29009KT P6SM FEW250
     FM240700 32006KT P6SM SKC=

USA.gov is the U.S. government's official web portal to all federal, state and local government web resources and services.